ワルシャワ の空港の天気 - METARとTAF

ワルシャワ・フレデリック・ショパン空港 ( EPWA / WAW ) - ポーランド ワルシャワ
飛行場実況気象(Metar)
観測時間11/27 10:30 CET (11/27 09:30 UTC)
風向・風速南 2m/s
視程5000m
天気現象もや
全天の4割程度の雲 雲底高度 210m
全天の8割程度の雲 雲底高度 370m
気温2℃
湿度93%
気圧1029hPa
METAREPWA 270930Z 19003KT 160V220 5000 BR SCT007 BKN012 02/01 Q1029 NOSIG
過去の天気等 Google飛行場航空写真 Wunderground天気予報

過去48時間のMETAR

飛行場予報(TAF)
発表時間: 11/27 09:30 CET (11/27 08:30 UTC)
予報対象時間: 27日10時 CET ~ 28日10時 CET
風向・風速不定 2m/s
視程4000m
天気現象もや
全天の8割程度の雲 雲底高度 180m
27日10時 CET ~ 27日13時 CET に徐々に
視程6000m
全天の8割程度の雲 雲底高度 370m
27日10時 CET ~ 27日12時 CET に 確率 40% で一時的に
天気現象弱い雪
全天の8割程度の雲 雲底高度 120m
27日12時 CET ~ 27日16時 CET に一時的に
全天の8割程度の雲 雲底高度 460m
27日16時 CET ~ 27日19時 CET に徐々に
視程4000m
天気現象もや
全天の8割程度の雲 雲底高度 210m
27日19時 CET ~ 28日10時 CET に一時的に
視程1500m
天気現象もや
27日23時 CET から 確率 40% で
視程600m
天気現象
全天の8割程度の雲 雲底高度 60m
TAF EPWA 270830Z 2709/2809 VRB04KT 4000 BR BKN006
BECMG 2709/2712 6000 BKN012
PROB40 TEMPO 2709/2711 -SN BKN004
TEMPO 2711/2715 BKN015
BECMG 2715/2718 4000 BR BKN007
TEMPO 2718/2809 1500 BR
PROB40 2722/2807 0600 FG BKN002